METAR Data
IDs: Format: Raw Decoded Include TAF

Data at: 1349 UTC 07 Jul 2020

KBED 071251Z COR 19004KT 10SM BKN060 BKN070 22/17 A3017 RMK AO2 SLP227 T02170167
KBED 071225Z VRB03KT 10SM SCT009 BKN070 21/17 A3017 RMK AO2 T02060167
KBED 071151Z 19003KT 10SM BKN009 OVC070 20/17 A3017 RMK AO2 SLP228 T02000172 10200 20167 50007
KBED 071143Z 16003KT 10SM BKN009 OVC070 20/17 A3017 RMK AO2 T02000172
KBED 071051Z 00000KT 10SM FEW007 BKN070 19/17 A3017 RMK AO2 SLP228 T01890167
KBED 070951Z AUTO 15004KT 10SM OVC060 19/17 A3016 RMK AO2 SLP225 T01890167
KBED 070851Z AUTO 17005KT 10SM BKN060 BKN075 18/16 A3015 RMK AO2 SLP219 T01830161 55003
KBED 070751Z AUTO 00000KT 10SM BKN065 BKN080 OVC100 18/16 A3014 RMK AO2 SLP217 T01780161
KBED 070651Z AUTO 00000KT 10SM OVC065 17/16 A3014 RMK AO2 SLP216 T01720161
KBED 070551Z AUTO 00000KT 10SM BKN065 BKN085 17/16 A3016 RMK AO2 SLP222 T01720156 10211 20167 53007
KBED 070451Z AUTO 00000KT 10SM BKN080 18/16 A3015 RMK AO2 SLP219 T01780156 402670178
KBED 070351Z AUTO 09006KT 10SM BKN075 BKN090 18/16 A3014 RMK AO2 SLP218 T01830156
KBED 070251Z 09005KT 10SM SCT080 18/16 A3014 RMK AO2 SLP215 T01830156 50010
KBED 070151Z 13004KT 10SM BKN080 19/16 A3014 RMK AO2 SLP217 T01890156
KBED 070051Z 08006KT 10SM CLR 19/16 A3011 RMK AO2 SLP209 T01890156
KBED 062351Z 08006KT 10SM CLR 21/14 A3011 RMK AO2 SLP206 T02110139 10267 20211 50007
KBED 062251Z 14007KT 10SM CLR 23/14 A3011 RMK AO2 SLP207 T02280144
KBED 062151Z 15009KT 10SM CLR 24/15 A3009 RMK AO2 SLP201 T02390150
KBED 062051Z 10009KT 10SM CLR 24/17 A3008 RMK AO2 SLP198 T02440167 52002
KBED 061951Z 10010KT 10SM SCT033 26/17 A3008 RMK AO2 SLP196 T02610167
KBED 061851Z 11008KT 10SM SCT031 BKN050 26/18 A3008 RMK AO2 SLP198 T02610178
KBED 061751Z 08012KT 10SM BKN030 26/18 A3008 RMK AO2 SLP196 60000 T02610178 10261 20200 50003
KBED 061710Z VRB05KT 10SM SCT030 BKN035 25/17 A3008 RMK AO2 T02500172
KBED 061651Z 11008KT 10SM BKN026 BKN033 26/18 A3008 RMK AO2 SLP198 T02560178
KBED 061551Z 09007KT 10SM BKN026 BKN033 24/18 A3008 RMK AO2 SLP196 T02440178
KBED 061451Z 06007KT 10SM SCT022 BKN030 25/18 A3007 RMK AO2 SLP193 60000 T02500178 51014
KBED 061351Z VRB03KT 10SM BKN017 OVC024 23/18 A3006 RMK AO2 SLP188 T02280178
KBED 061251Z 05006KT 10SM BKN009 OVC017 21/18 A3005 RMK AO2 RAE1158 SLP186 P0000 T02110183
KBED 061211Z 01005KT 6SM BR BKN008 OVC017 21/18 A3004 RMK AO2 RAE1158 P0000 T02060178
KBED 061151Z COR VRB05KT 10SM -RA BR BKN008 OVC016 20/18 A3003 RMK AO2 CIG 005V011 SLP180 P0000 60000 70025 T02000178 10206 20189 51013
KBED 061147Z 34004KT 10SM -RA BR BKN008 OVC016 20/18 A3003 RMK AO2 CIG 005V011 P0000
KBED 061122Z 00000KT 10SM -RA BR SCT006 OVC015 19/18 A3003 RMK AO2 P0000 T01940183
KBED 061117Z 00000KT 10SM -RA BR BKN006 OVC014 19/18 A3003 RMK AO2 CIG 003V010 P0000 T01890178
KBED 061051Z 02006KT 4SM -RA BR OVC004 19/18 A3002 RMK AO2 RAB49 CIG 002V010 SLP175 P0000 T01890178
KBED 061028Z AUTO 04005KT 3SM BR OVC002 19/18 A3001 RMK AO2 T01890183
KBED 061022Z AUTO 03004KT 1 1/2SM R11/5000VP6000FT BR OVC002 19/18 A3001 RMK AO2 T01890183
KBED 061006Z AUTO 04004KT 1/2SM R11/2200V4500FT FG VV002 19/18 A3000 RMK AO2 T01890183
KBED 060951Z AUTO 04004KT 1/4SM R11/2200V2400FT FG VV002 19/18 A2999 RMK AO2 SLP167 T01890178
KBED 060949Z AUTO 04003KT 1/4SM R11/2000V2400FT FG VV002 19/18 A2999 RMK AO2
KBED 060929Z AUTO 04004KT 3/4SM R11/2600V4000FT BR VV002 19/18 A2999 RMK AO2 T01890178
KBED 060851Z AUTO 01006KT 1SM R11/3000V5000FT BR VV002 19/18 A2998 RMK AO2 SLP161 T01890183 53005
KBED 060831Z AUTO 03005KT 1/2SM R11/2000V4000FT FG VV002 19/18 A2997 RMK AO2 T01940183
KBED 060820Z AUTO 05005KT 3/4SM R11/1800V2200FT BR VV002 19/18 A2997 RMK AO2 T01940183
KBED 060816Z AUTO 00000KT 2SM R11/1800VP6000FT BR BKN002 19/18 A2997 RMK AO2 T01940183
KBED 060758Z AUTO 02003KT 3SM BR FEW004 19/18 A2996 RMK AO2 T01890178
KBED 060751Z AUTO 00000KT 2 1/2SM BR FEW012 19/18 A2996 RMK AO2 SLP156 T01940183
KBED 060744Z AUTO 00000KT 9SM SCT012 19/18 A2996 RMK AO2 T01940183
KBED 060702Z AUTO 06004KT 10SM SCT006 OVC012 21/19 A2996 RMK AO2 T02060189
KBED 060651Z AUTO 09004KT 10SM BKN006 OVC010 21/19 A2996 RMK AO2 CIG 004V009 SLP156 T02060189
KBED 060620Z AUTO 00000KT 6SM BR OVC002 20/19 A2996 RMK AO2 T02000189
KBED 060601Z AUTO 00000KT 2SM BR BKN002 OVC009 20/19 A2996 RMK AO2 T02000189
KBED 060551Z AUTO 00000KT 3SM R11/3500VP6000FT BR BKN002 OVC007 20/19 A2995 RMK AO2 SLP152 60025 T02000189 10244 20200 55005
KBED 060531Z AUTO 00000KT 4SM BR OVC006 20/19 A2995 RMK AO2 CIG 002V009 T02000189
KBED 060451Z AUTO 00000KT 6SM BR BKN004 OVC008 21/19 A2995 RMK AO2 CIG 003V007 SLP151 T02060194 403060183
KBED 060443Z AUTO 00000KT 2 1/2SM BR BKN006 20/19 A2995 RMK AO2 CIG 003V009 T02000189
KBED 060422Z AUTO 00000KT 9SM BKN005 21/19 A2995 RMK AO2 T02110194
KBED 060413Z AUTO 06004KT 9SM SCT005 21/19 A2995 RMK AO2 T02110194
KBED 060351Z AUTO 03004KT 9SM FEW070 21/19 A2994 RMK AO2 LTG DSNT SE AND S RAE27 TSE01 SLP150 P0006 T02060194
KBED 060307Z AUTO 11007KT 9SM -RA FEW006 BKN080 OVC110 22/20 A2993 RMK AO2 LTG DSNT NE-S TSE01 PRESFR P0006 T02170200
KBED 060251Z AUTO 33005KT 3SM +TSRA BR SCT005 BKN049 OVC095 22/20 A2997 RMK AO2 LTG DSNT NE-S TSB20E35B46 SLP158 P0019 60019 T02170200 53023
KBED 060241Z 27005KT 5SM VCTS RA BR FEW009 BKN050 OVC095 22/20 A2997 RMK AO2 LTG DSNT NE AND S TSB20E35 P0013 T02170200
KBED 060226Z 32006G17KT 3SM +TSRA BR FEW017 BKN070 OVC100 22/20 A2995 RMK AO2 LTG DSNT ALQDS TSB20 P0008 T02170200
KBED 060151Z 29007KT 9SM VCTS -RA BKN100 22/19 A2993 RMK AO2 LTG DSNT ALQDS RAB31 PRESRR SLP145 P0000 T02220194